Terminal Aerodrome Forecast
Issued by NWS Sterling, VA

Current Version | Previous Version | Text Only | Print | Product List | Glossary Off
Versions: 1 2 3 4 5 6 7 8 9 10 11 12 13

546
FTUS41 KLWX 251730
TAFMRB
TAF
KMRB 251730Z 2518/2618 32012KT P6SM OVC040
     FM260200 VRB04KT P6SM FEW045
     FM261400 VRB04KT P6SM SCT035=

USA.gov is the U.S. government's official web portal to all federal, state and local government web resources and services.